createdAt,value
2024-03-11T00:00:16.637Z,97009.44
2024-03-11T00:02:43.932Z,97007.00
2024-03-11T00:05:12.959Z,97007.13
2024-03-11T00:07:44.057Z,97011.41
2024-03-11T00:10:13.964Z,97021.78
2024-03-11T00:12:42.001Z,97021.75
2024-03-11T00:15:09.241Z,97014.47
2024-03-11T00:17:35.753Z,97026.81
2024-03-11T00:20:02.619Z,97033.84
2024-03-11T00:22:29.136Z,97029.81
2024-03-11T00:24:55.632Z,97035.78
2024-03-11T00:27:23.061Z,97032.66
2024-03-11T00:29:51.679Z,97035.50
2024-03-11T00:32:18.228Z,97054.03
2024-03-11T00:34:44.752Z,97057.47
2024-03-11T00:37:13.622Z,97047.25
2024-03-11T00:39:40.174Z,97055.31
2024-03-11T00:42:07.538Z,97064.28
2024-03-11T00:44:34.048Z,97058.25
2024-03-11T00:47:00.606Z,97060.31
2024-03-11T00:49:27.727Z,97058.88
2024-03-11T00:51:54.224Z,97053.19
2024-03-11T00:54:21.631Z,97042.28
2024-03-11T00:56:48.153Z,97055.88
2024-03-11T00:59:15.599Z,97054.94
2024-03-11T01:01:42.077Z,97057.19
2024-03-11T01:04:11.347Z,97058.88
2024-03-11T01:06:37.850Z,97062.72
2024-03-11T01:09:05.257Z,97067.72
2024-03-11T01:11:31.711Z,97067.59
2024-03-11T01:13:58.395Z,97078.47
2024-03-11T01:16:25.107Z,97073.41
2024-03-11T01:18:51.548Z,97076.00
2024-03-11T01:21:18.859Z,97079.38
2024-03-11T01:23:48.322Z,97083.59
2024-03-11T01:26:15.312Z,97080.59
2024-03-11T01:28:42.269Z,97091.47
2024-03-11T01:31:08.880Z,97091.06
2024-03-11T01:33:35.554Z,97086.97
2024-03-11T01:36:02.554Z,97089.59
2024-03-11T01:38:29.195Z,97090.41
2024-03-11T01:40:56.599Z,97089.38
2024-03-11T01:43:23.448Z,97096.91
2024-03-11T01:45:50.585Z,97093.78
2024-03-11T01:48:17.859Z,97097.06
2024-03-11T01:50:44.660Z,97104.25
2024-03-11T01:53:11.466Z,97105.53
2024-03-11T01:55:38.952Z,97109.94
2024-03-11T01:58:07.860Z,97107.72
2024-03-11T02:00:35.821Z,97100.25
2024-03-11T02:03:02.263Z,97097.13
2024-03-11T02:05:29.557Z,97107.34
2024-03-11T02:08:02.585Z,97103.06
2024-03-11T02:10:29.886Z,97102.91
2024-03-11T02:12:59.268Z,97098.13
2024-03-11T02:15:26.503Z,97096.28
2024-03-11T02:17:55.091Z,97086.97
2024-03-11T02:20:23.147Z,97097.78
2024-03-11T02:22:54.392Z,97092.19
2024-03-11T02:25:23.351Z,97089.50
2024-03-11T02:27:50.743Z,97093.94
2024-03-11T02:30:17.582Z,97095.19
2024-03-11T02:32:45.893Z,97092.63
2024-03-11T02:35:15.689Z,97091.75
2024-03-11T02:37:46.729Z,97086.19
2024-03-11T02:40:15.385Z,97093.19
2024-03-11T02:42:42.104Z,97102.50
2024-03-11T02:45:15.431Z,97100.81
2024-03-11T02:47:42.793Z,97105.31
2024-03-11T02:50:09.990Z,97109.41
2024-03-11T02:52:40.271Z,97099.84
2024-03-11T02:55:07.895Z,97109.16
2024-03-11T02:57:34.577Z,97107.06
2024-03-11T03:00:01.413Z,97110.91
2024-03-11T03:02:28.414Z,97109.13
2024-03-11T03:04:57.044Z,97115.41
2024-03-11T03:07:26.690Z,97118.56
2024-03-11T03:09:54.012Z,97121.69
2024-03-11T03:12:21.140Z,97122.66
2024-03-11T03:14:47.763Z,97137.44
2024-03-11T03:17:14.299Z,97131.75
2024-03-11T03:19:40.745Z,97143.06
2024-03-11T03:22:09.049Z,97144.25
2024-03-11T03:24:35.659Z,97139.97
2024-03-11T03:27:02.130Z,97138.63
2024-03-11T03:29:28.687Z,97140.59
2024-03-11T03:31:55.121Z,97130.41
2024-03-11T03:34:21.638Z,97144.38
2024-03-11T03:36:48.155Z,97134.97
2024-03-11T03:39:14.727Z,97139.81
2024-03-11T03:41:41.226Z,97135.28
2024-03-11T03:44:07.874Z,97142.78
2024-03-11T03:46:35.010Z,97146.84
2024-03-11T03:49:01.898Z,97142.25
2024-03-11T03:51:28.375Z,97147.06
2024-03-11T03:53:54.922Z,97148.69
2024-03-11T03:56:21.486Z,97150.56
2024-03-11T03:58:48.028Z,97157.53
2024-03-11T04:01:14.520Z,97161.53
2024-03-11T04:03:43.253Z,97157.78
2024-03-11T04:06:10.571Z,97156.16
2024-03-11T04:08:37.024Z,97163.16
2024-03-11T04:11:03.658Z,97162.13
2024-03-11T04:13:30.145Z,97167.97
2024-03-11T04:15:57.895Z,97168.53
2024-03-11T04:18:27.762Z,97168.50
2024-03-11T04:20:57.270Z,97176.34
2024-03-11T04:23:27.305Z,97169.38
2024-03-11T04:25:53.824Z,97172.09
2024-03-11T04:28:20.290Z,97173.91
2024-03-11T04:30:46.847Z,97174.50
2024-03-11T04:33:16.858Z,97180.34
2024-03-11T04:35:43.795Z,97184.41
2024-03-11T04:38:11.563Z,97187.88
2024-03-11T04:40:40.124Z,97185.19
2024-03-11T04:43:07.006Z,97184.16
2024-03-11T04:45:35.887Z,97185.22
2024-03-11T04:48:03.108Z,97187.06
2024-03-11T04:50:32.372Z,97194.34
2024-03-11T04:53:01.647Z,97196.47
2024-03-11T04:55:28.942Z,97190.03
2024-03-11T04:57:56.687Z,97193.25
2024-03-11T05:00:27.702Z,97194.84
2024-03-11T05:03:02.316Z,97202.63
2024-03-11T05:05:33.077Z,97197.00
2024-03-11T05:07:59.863Z,97206.41
2024-03-11T05:10:27.337Z,97201.28
2024-03-11T05:12:54.025Z,97211.50
2024-03-11T05:15:20.721Z,97220.63
2024-03-11T05:17:47.422Z,97217.38
2024-03-11T05:20:17.043Z,97219.81
2024-03-11T05:22:47.618Z,97223.56
2024-03-11T05:25:16.221Z,97227.59
2024-03-11T05:27:44.140Z,97224.09
2024-03-11T05:30:11.089Z,97227.59
2024-03-11T05:32:37.793Z,97219.56
2024-03-11T05:35:04.666Z,97226.50
2024-03-11T05:37:33.823Z,97230.00
2024-03-11T05:40:00.712Z,97229.72
2024-03-11T05:42:27.448Z,97236.19
2024-03-11T05:44:57.069Z,97242.88
2024-03-11T05:47:27.097Z,97241.25
2024-03-11T05:49:55.306Z,97243.97
2024-03-11T05:52:25.969Z,97245.28
2024-03-11T05:54:58.150Z,97244.50
2024-03-11T05:57:27.887Z,97247.44
2024-03-11T05:59:54.563Z,97246.91
2024-03-11T06:02:21.916Z,97253.88
2024-03-11T06:04:48.891Z,97257.38
2024-03-11T06:07:25.278Z,97253.38
2024-03-11T06:09:52.600Z,97248.75
2024-03-11T06:12:22.215Z,97253.06
2024-03-11T06:14:49.974Z,97262.19
2024-03-11T06:17:17.460Z,97271.47
2024-03-11T06:19:44.662Z,97268.84
2024-03-11T06:22:11.566Z,97269.44
2024-03-11T06:24:39.487Z,97275.06
2024-03-11T06:27:06.019Z,97275.84
2024-03-11T06:29:33.470Z,97282.88
2024-03-11T06:31:59.991Z,97277.75
2024-03-11T06:34:28.680Z,97281.81
2024-03-11T06:36:56.349Z,97279.63
2024-03-11T06:39:22.994Z,97287.56
2024-03-11T06:41:49.556Z,97286.34
2024-03-11T06:44:20.610Z,97276.88
2024-03-11T06:46:49.009Z,97286.38
2024-03-11T06:49:15.779Z,97283.31
2024-03-11T06:51:42.294Z,97286.06
2024-03-11T06:54:08.740Z,97280.16
2024-03-11T06:56:35.303Z,97282.19
2024-03-11T06:59:01.910Z,97288.19
2024-03-11T07:01:29.157Z,97284.47
2024-03-11T07:03:56.552Z,97291.53
2024-03-11T07:06:24.208Z,97298.75
2024-03-11T07:08:51.325Z,97305.31
2024-03-11T07:11:18.296Z,97306.09
2024-03-11T07:13:44.833Z,97307.00
2024-03-11T07:16:13.248Z,97308.72
2024-03-11T07:18:43.270Z,97312.44
2024-03-11T07:21:13.438Z,97306.06
2024-03-11T07:23:39.835Z,97306.56
2024-03-11T07:26:06.357Z,97316.06
2024-03-11T07:28:33.397Z,97312.66
2024-03-11T07:31:00.606Z,97318.97
2024-03-11T07:33:28.075Z,97324.47
2024-03-11T07:35:55.740Z,97325.97
2024-03-11T07:38:24.503Z,97327.50
2024-03-11T07:40:51.426Z,97334.31
2024-03-11T07:43:18.373Z,97328.44
2024-03-11T07:45:45.074Z,97341.34
2024-03-11T07:48:13.592Z,97346.16
2024-03-11T07:50:40.613Z,97345.47
2024-03-11T07:53:07.161Z,97350.09
2024-03-11T07:55:36.917Z,97351.16
2024-03-11T07:58:03.560Z,97351.78
2024-03-11T08:00:33.074Z,97354.06
2024-03-11T08:03:00.534Z,97359.06
2024-03-11T08:05:28.671Z,97367.53
2024-03-11T08:07:58.102Z,97355.22
2024-03-11T08:10:27.002Z,97364.94
2024-03-11T08:12:53.725Z,97360.69
2024-03-11T08:15:21.917Z,97371.75
2024-03-11T08:17:51.064Z,97372.16
2024-03-11T08:20:21.542Z,97377.19
2024-03-11T08:22:50.443Z,97372.97
2024-03-11T08:25:19.235Z,97374.41
2024-03-11T08:27:45.700Z,97383.06
2024-03-11T08:30:12.717Z,97383.91
2024-03-11T08:32:40.070Z,97384.06
2024-03-11T08:35:06.743Z,97390.56
2024-03-11T08:37:33.152Z,97392.38
2024-03-11T08:39:59.713Z,97385.88
2024-03-11T08:42:27.345Z,97388.09
2024-03-11T08:44:53.949Z,97397.56
2024-03-11T08:47:20.934Z,97401.09
2024-03-11T08:49:47.606Z,97401.06
2024-03-11T08:52:14.887Z,97401.06
2024-03-11T08:54:41.902Z,97397.16
2024-03-11T08:57:13.789Z,97403.47
2024-03-11T08:59:41.002Z,97400.69
2024-03-11T09:02:10.621Z,97407.53
2024-03-11T09:04:37.437Z,97416.19
2024-03-11T09:07:05.441Z,97407.94
2024-03-11T09:09:33.359Z,97420.34
2024-03-11T09:12:01.790Z,97423.34
2024-03-11T09:14:32.611Z,97424.03
2024-03-11T09:17:01.440Z,97430.72
2024-03-11T09:19:34.462Z,97428.28
2024-03-11T09:22:01.024Z,97423.78
2024-03-11T09:24:27.883Z,97425.63
2024-03-11T09:26:55.149Z,97428.28
2024-03-11T09:29:23.202Z,97435.63
2024-03-11T09:31:50.328Z,97440.06
2024-03-11T09:34:18.319Z,97438.47
2024-03-11T09:36:45.594Z,97438.63
2024-03-11T09:39:14.939Z,97439.09
2024-03-11T09:41:46.869Z,97447.47
2024-03-11T09:44:21.998Z,97451.66
2024-03-11T09:46:52.360Z,97446.66
2024-03-11T09:49:24.241Z,97450.25
2024-03-11T09:51:55.466Z,97449.25
2024-03-11T09:54:23.448Z,97458.50
2024-03-11T09:56:52.436Z,97455.22
2024-03-11T09:59:21.232Z,97453.47
2024-03-11T10:01:55.278Z,97449.97
2024-03-11T10:04:27.581Z,97459.03
2024-03-11T10:06:58.581Z,97456.25
2024-03-11T10:09:47.370Z,97465.75
2024-03-11T10:12:16.520Z,97459.16
2024-03-11T10:14:44.222Z,97467.66
2024-03-11T10:17:21.092Z,97467.88
2024-03-11T10:19:55.776Z,97465.09
2024-03-11T10:22:24.859Z,97476.34
2024-03-11T10:24:58.394Z,97466.16
2024-03-11T10:27:32.799Z,97469.56
2024-03-11T10:30:22.314Z,97468.66
2024-03-11T10:32:56.536Z,97465.44
2024-03-11T10:35:28.053Z,97470.66
2024-03-11T10:38:13.906Z,97473.47
2024-03-11T10:40:42.504Z,97474.88
2024-03-11T10:43:23.000Z,97468.81
2024-03-11T10:45:49.628Z,97467.03
2024-03-11T10:48:19.348Z,97464.34
2024-03-11T10:50:46.043Z,97464.19
2024-03-11T10:53:31.463Z,97464.84
2024-03-11T10:55:59.879Z,97464.88
2024-03-11T10:58:29.915Z,97473.28
2024-03-11T11:01:02.027Z,97478.66
2024-03-11T11:03:32.038Z,97474.53
2024-03-11T11:06:10.820Z,97473.63
2024-03-11T11:08:38.592Z,97480.94
2024-03-11T11:11:06.481Z,97476.69
2024-03-11T11:13:35.942Z,97483.19
2024-03-11T11:16:04.647Z,97491.97
2024-03-11T11:18:37.645Z,97489.91
2024-03-11T11:21:11.318Z,97488.44
2024-03-11T11:23:39.068Z,97488.81
2024-03-11T11:26:06.042Z,97485.16
2024-03-11T11:28:40.886Z,97492.84
2024-03-11T11:31:16.251Z,97488.16
2024-03-11T11:33:55.061Z,97486.25
2024-03-11T11:36:30.939Z,97485.81
2024-03-11T11:38:59.398Z,97481.22
2024-03-11T11:41:38.576Z,97493.94
2024-03-11T11:44:05.258Z,97493.66
2024-03-11T11:46:51.776Z,97489.56
2024-03-11T11:49:24.993Z,97483.72
2024-03-11T11:51:55.713Z,97488.50
2024-03-11T11:54:35.717Z,97486.16
2024-03-11T11:57:13.275Z,97484.28
2024-03-11T11:59:41.823Z,97482.22
2024-03-11T12:02:20.676Z,97485.56
2024-03-11T12:04:51.958Z,97481.59
2024-03-11T12:07:24.674Z,97483.72
2024-03-11T12:09:53.186Z,97482.09
2024-03-11T12:12:31.747Z,97481.66
2024-03-11T12:15:02.542Z,97486.50
2024-03-11T12:17:33.553Z,97474.00
2024-03-11T12:20:25.548Z,97480.16
2024-03-11T12:23:02.186Z,97484.72
2024-03-11T12:25:30.188Z,97477.06
2024-03-11T12:28:09.077Z,97481.22
2024-03-11T12:30:39.253Z,97484.97
2024-03-11T12:33:08.274Z,97479.69
2024-03-11T12:35:38.441Z,97482.34
2024-03-11T12:38:06.475Z,97490.31
2024-03-11T12:40:36.096Z,97489.47
2024-03-11T12:43:23.394Z,97481.84
2024-03-11T12:45:55.562Z,97484.56
2024-03-11T12:48:26.478Z,97488.47
2024-03-11T12:50:58.134Z,97490.22
2024-03-11T12:53:26.830Z,97477.47
2024-03-11T12:56:12.271Z,97478.13
2024-03-11T12:58:40.378Z,97481.53
2024-03-11T13:01:14.629Z,97474.34
2024-03-11T13:03:42.975Z,97480.00
2024-03-11T13:06:16.697Z,97483.88
2024-03-11T13:08:43.214Z,97480.69
2024-03-11T13:11:10.612Z,97486.81
2024-03-11T13:13:42.408Z,97493.81
2024-03-11T13:16:11.053Z,97488.03
2024-03-11T13:18:40.997Z,97487.66
2024-03-11T13:21:08.634Z,97482.53
2024-03-11T13:23:39.472Z,97486.69
2024-03-11T13:26:12.935Z,97477.13
2024-03-11T13:28:40.221Z,97483.44
2024-03-11T13:31:12.484Z,97489.66
2024-03-11T13:33:44.181Z,97485.41
2024-03-11T13:36:11.828Z,97485.81
2024-03-11T13:38:38.784Z,97487.63
2024-03-11T13:41:06.810Z,97490.53
2024-03-11T13:43:34.220Z,97487.97
2024-03-11T13:46:01.242Z,97496.97
2024-03-11T13:48:28.529Z,97492.38
2024-03-11T13:50:58.003Z,97496.22
2024-03-11T13:53:25.046Z,97498.91
2024-03-11T13:55:53.944Z,97507.31
2024-03-11T13:58:21.189Z,97515.03
2024-03-11T14:00:50.916Z,97513.56
2024-03-11T14:03:18.031Z,97514.22
2024-03-11T14:05:44.677Z,97514.63
2024-03-11T14:08:11.825Z,97512.22
2024-03-11T14:10:38.253Z,97522.16
2024-03-11T14:13:04.951Z,97518.03
2024-03-11T14:15:31.370Z,97530.28
2024-03-11T14:17:59.468Z,97530.38
2024-03-11T14:20:31.772Z,97536.38
2024-03-11T14:22:59.436Z,97524.47
2024-03-11T14:25:27.355Z,97536.44
2024-03-11T14:27:54.189Z,97536.34
2024-03-11T14:30:25.675Z,97540.41
2024-03-11T14:32:53.751Z,97535.41
2024-03-11T14:35:22.007Z,97535.88
2024-03-11T14:37:48.576Z,97538.81
2024-03-11T14:40:43.422Z,97538.50
2024-03-11T14:43:12.081Z,97547.88
2024-03-11T14:45:40.010Z,97543.97
2024-03-11T14:48:15.876Z,97538.16
2024-03-11T14:50:46.424Z,97539.31
2024-03-11T14:53:16.633Z,97541.16
2024-03-11T14:55:44.607Z,97546.75
2024-03-11T14:58:20.480Z,97548.78
2024-03-11T15:00:59.026Z,97547.31
2024-03-11T15:03:27.697Z,97540.13
2024-03-11T15:05:54.442Z,97537.91
2024-03-11T15:08:22.579Z,97541.34
2024-03-11T15:10:50.861Z,97535.75
2024-03-11T15:13:18.409Z,97541.16
2024-03-11T15:15:48.958Z,97544.13
2024-03-11T15:18:18.322Z,97540.47
2024-03-11T15:20:51.172Z,97537.75
2024-03-11T15:23:24.679Z,97551.38
2024-03-11T15:25:55.024Z,97544.53
2024-03-11T15:28:21.827Z,97543.38
2024-03-11T15:30:48.465Z,97552.53
2024-03-11T15:33:18.836Z,97556.25
2024-03-11T15:35:50.437Z,97549.97
2024-03-11T15:38:17.962Z,97559.78
2024-03-11T15:40:44.845Z,97563.63
2024-03-11T15:43:11.502Z,97562.34
2024-03-11T15:45:39.788Z,97569.72
2024-03-11T15:48:06.768Z,97575.00
2024-03-11T15:50:35.874Z,97568.72
2024-03-11T15:53:04.233Z,97574.66
2024-03-11T15:55:33.193Z,97582.81
2024-03-11T15:58:04.808Z,97583.56
2024-03-11T16:00:37.149Z,97586.75
2024-03-11T16:03:09.746Z,97596.16
2024-03-11T16:05:38.480Z,97601.88
2024-03-11T16:08:05.921Z,97600.63
2024-03-11T16:10:32.911Z,97598.41
2024-03-11T16:12:59.498Z,97600.66
2024-03-11T16:15:26.582Z,97602.66
2024-03-11T16:17:57.992Z,97616.88
2024-03-11T16:20:29.257Z,97621.00
2024-03-11T16:22:57.609Z,97614.38
2024-03-11T16:25:27.555Z,97618.91
2024-03-11T16:27:55.846Z,97622.16
2024-03-11T16:30:24.234Z,97626.38
2024-03-11T16:32:53.575Z,97619.81
2024-03-11T16:35:35.680Z,97630.59
2024-03-11T16:38:03.916Z,97628.72
2024-03-11T16:40:30.666Z,97635.00
2024-03-11T16:43:02.023Z,97647.28
2024-03-11T16:45:28.774Z,97648.31
2024-03-11T16:47:58.637Z,97656.34
2024-03-11T16:50:25.267Z,97660.81
2024-03-11T16:52:54.047Z,97666.44
2024-03-11T16:55:32.139Z,97662.88
2024-03-11T16:57:59.343Z,97674.16
2024-03-11T17:00:29.193Z,97673.00
2024-03-11T17:02:55.948Z,97677.69
2024-03-11T17:05:24.812Z,97677.13
2024-03-11T17:07:56.083Z,97685.22
2024-03-11T17:10:30.246Z,97685.44
2024-03-11T17:13:05.023Z,97697.63
2024-03-11T17:15:35.474Z,97701.44
2024-03-11T17:18:02.687Z,97702.09
2024-03-11T17:20:40.908Z,97710.81
2024-03-11T17:23:10.111Z,97712.31
2024-03-11T17:25:39.121Z,97722.16
2024-03-11T17:28:08.963Z,97724.00
2024-03-11T17:30:35.612Z,97729.31
2024-03-11T17:33:15.201Z,97725.78
2024-03-11T17:35:46.788Z,97735.44
2024-03-11T17:38:14.803Z,97746.41
2024-03-11T17:40:45.125Z,97745.16
2024-03-11T17:43:14.584Z,97750.31
2024-03-11T17:45:45.971Z,97755.81
2024-03-11T17:48:17.867Z,97770.91
2024-03-11T17:50:45.185Z,97765.53
2024-03-11T17:53:14.832Z,97772.06
2024-03-11T17:55:42.574Z,97779.16
2024-03-11T17:58:12.194Z,97782.06
2024-03-11T18:00:41.020Z,97790.31
2024-03-11T18:03:08.501Z,97793.16
2024-03-11T18:05:36.555Z,97789.84
2024-03-11T18:08:05.883Z,97792.28
2024-03-11T18:10:33.611Z,97798.16
2024-03-11T18:13:01.673Z,97803.69
2024-03-11T18:15:28.984Z,97808.25
2024-03-11T18:17:56.067Z,97814.41
2024-03-11T18:20:32.173Z,97820.28
2024-03-11T18:23:01.173Z,97826.38
2024-03-11T18:25:32.270Z,97831.00
2024-03-11T18:28:03.348Z,97837.31
2024-03-11T18:30:30.105Z,97840.44
2024-03-11T18:32:57.954Z,97847.00
2024-03-11T18:35:26.767Z,97854.88
2024-03-11T18:37:57.596Z,97861.63
2024-03-11T18:40:25.110Z,97863.00
2024-03-11T18:42:53.051Z,97874.38
2024-03-11T18:45:24.210Z,97878.47
2024-03-11T18:47:51.613Z,97887.28
2024-03-11T18:50:20.251Z,97891.44
2024-03-11T18:52:53.839Z,97899.66
2024-03-11T18:55:26.003Z,97904.22
2024-03-11T18:57:54.078Z,97904.03
2024-03-11T19:00:24.060Z,97909.63
2024-03-11T19:02:54.046Z,97918.66
2024-03-11T19:05:20.901Z,97916.88
2024-03-11T19:07:47.876Z,97922.63
2024-03-11T19:10:18.066Z,97928.66
2024-03-11T19:12:47.911Z,97935.38
2024-03-11T19:15:16.289Z,97932.84
2024-03-11T19:17:46.535Z,97949.81
2024-03-11T19:20:17.850Z,97952.09
2024-03-11T19:22:46.573Z,97945.78
2024-03-11T19:25:19.092Z,97955.25
2024-03-11T19:27:46.847Z,97964.72
2024-03-11T19:30:14.697Z,97961.59
2024-03-11T19:32:42.956Z,97973.41
2024-03-11T19:35:15.285Z,97972.41
2024-03-11T19:38:40.568Z,97980.56
2024-03-11T19:41:18.037Z,97982.81
2024-03-11T19:44:16.681Z,97983.22
2024-03-11T19:46:55.701Z,97997.34
2024-03-11T19:49:40.712Z,97993.19
2024-03-11T19:52:47.610Z,97998.72
2024-03-11T19:55:32.464Z,98007.88
2024-03-11T19:59:00.013Z,98005.88
2024-03-11T20:01:45.693Z,98012.38
2024-03-11T20:04:37.138Z,98008.53
2024-03-11T20:07:24.680Z,98013.19
2024-03-11T20:10:20.390Z,98014.69
2024-03-11T20:13:07.403Z,98024.25
2024-03-11T20:15:42.638Z,98024.88
2024-03-11T20:18:37.056Z,98033.00
2024-03-11T20:21:31.663Z,98038.50
2024-03-11T20:24:01.195Z,98043.16
2024-03-11T20:26:49.527Z,98049.69
2024-03-11T20:29:47.761Z,98057.09
2024-03-11T20:32:41.248Z,98056.84
2024-03-11T20:35:09.015Z,98060.66
2024-03-11T20:37:35.563Z,98062.69
2024-03-11T20:40:02.324Z,98069.28
2024-03-11T20:42:34.749Z,98072.97
2024-03-11T20:45:01.949Z,98068.13
2024-03-11T20:47:28.487Z,98073.63
2024-03-11T20:49:54.990Z,98080.41
2024-03-11T20:52:21.519Z,98082.88
2024-03-11T20:54:48.204Z,98078.59
2024-03-11T20:57:15.358Z,98084.25
2024-03-11T20:59:41.868Z,98095.41
2024-03-11T21:02:09.255Z,98095.41
2024-03-11T21:04:37.244Z,98096.78
2024-03-11T21:07:06.430Z,98101.63
2024-03-11T21:09:35.761Z,98110.03
2024-03-11T21:12:04.766Z,98107.56
2024-03-11T21:14:31.323Z,98101.81
2024-03-11T21:16:57.843Z,98107.25
2024-03-11T21:19:37.154Z,98108.28
2024-03-11T21:22:15.851Z,98101.81
2024-03-11T21:24:51.438Z,98110.28
2024-03-11T21:27:25.678Z,98118.38
2024-03-11T21:29:55.288Z,98118.69
2024-03-11T21:32:23.858Z,98120.06
2024-03-11T21:34:53.308Z,98126.34
2024-03-11T21:37:20.361Z,98121.75
2024-03-11T21:39:49.529Z,98117.66
2024-03-11T21:42:16.021Z,98126.34
2024-03-11T21:44:42.470Z,98126.66
2024-03-11T21:47:09.507Z,98126.91
2024-03-11T21:49:35.960Z,98132.31
2024-03-11T21:52:02.591Z,98136.72
2024-03-11T21:54:29.262Z,98137.00
2024-03-11T21:56:55.814Z,98143.25
2024-03-11T21:59:22.333Z,98145.13
2024-03-11T22:01:48.783Z,98145.41
2024-03-11T22:04:15.434Z,98150.25
2024-03-11T22:06:42.023Z,98152.94
2024-03-11T22:09:11.304Z,98148.03
2024-03-11T22:11:40.276Z,98150.22
2024-03-11T22:14:10.384Z,98149.94
2024-03-11T22:16:40.283Z,98161.31
2024-03-11T22:19:07.525Z,98157.19
2024-03-11T22:21:34.493Z,98152.28
2024-03-11T22:24:06.454Z,98151.03
2024-03-11T22:26:36.333Z,98157.50
2024-03-11T22:29:04.481Z,98164.09
2024-03-11T22:31:30.993Z,98161.44
2024-03-11T22:33:57.549Z,98168.19
2024-03-11T22:36:24.219Z,98176.47
2024-03-11T22:38:50.727Z,98185.66
2024-03-11T22:41:28.153Z,98179.06
2024-03-11T22:43:55.811Z,98182.91
2024-03-11T22:46:22.351Z,98192.66
2024-03-11T22:48:50.111Z,98192.19
2024-03-11T22:51:19.173Z,98198.34
2024-03-11T22:53:46.439Z,98204.59
2024-03-11T22:56:13.893Z,98199.13
2024-03-11T22:58:40.782Z,98202.53
2024-03-11T23:01:10.231Z,98209.06
2024-03-11T23:03:39.886Z,98214.47
2024-03-11T23:06:08.279Z,98212.41
2024-03-11T23:08:34.915Z,98220.69
2024-03-11T23:11:02.455Z,98211.44
2024-03-11T23:13:28.958Z,98213.13
2024-03-11T23:15:55.495Z,98219.59
2024-03-11T23:18:21.986Z,98214.28
2024-03-11T23:20:48.902Z,98216.34
2024-03-11T23:23:15.717Z,98213.66
2024-03-11T23:25:42.303Z,98218.88
2024-03-11T23:28:09.833Z,98221.56
2024-03-11T23:30:37.040Z,98221.78
2024-03-11T23:33:04.087Z,98226.69
2024-03-11T23:35:30.577Z,98226.16
2024-03-11T23:37:59.597Z,98228.81
2024-03-11T23:40:26.085Z,98226.91
2024-03-11T23:42:53.175Z,98221.78
2024-03-11T23:45:21.070Z,98231.91
2024-03-11T23:47:50.405Z,98226.94
2024-03-11T23:50:25.461Z,98226.59
2024-03-11T23:52:52.068Z,98238.38
2024-03-11T23:55:21.145Z,98233.50
2024-03-11T23:57:47.937Z,98232.97
